• Join FlightAware (Why Join?)
  • Login
  • US Flag 
Trick or treat! (Boo!!) 
03:04AM EDT


 

Airport Tracker/Info


-or-


 

Live Flight TrackerFlight Track Log ✈ TFX114 ✈ 12-Nov-2013 ✈ YBNA / BNK - YBCG / OOL

Flight Track Log - Related Links

Times and Time Zones

All times are in EST time to prevent confusion due to time zone crossing. See the TFX114 flight status page for this flight to view local times or setup timezone preferences in your user account.

Time Position Orientation Groundspeed Altitude Reporting Facility
EST Latitude Longitude Course Direction KTS MPH feet Rate Location/Type
06:30PM -28.8128 153.5965 335° Northwest 145 167 2,300  Level Aus ATC (RADAR)
06:31PM -28.7974 153.5883 335° Northwest 141 162 3,400 2,160 Climbing Aus ATC (RADAR)
06:31PM -28.7735 153.5764 336° Northwest 141 162 4,700 1,620 Climbing Aus ATC (RADAR)
06:32PM -28.7353 153.5691 350° North 159 183 6,000 900 Climbing Aus ATC (RADAR)
06:33PM -28.7066 153.5666 356° North 198 228 6,000  Level Aus ATC (RADAR)
06:33PM -28.6720 153.5637 356° North 211 243 6,000  Level Aus ATC (RADAR)
06:34PM -28.6319 153.5605 356° North 216 249 6,000 -120 Level Aus ATC (RADAR)
06:34PM -28.5957 153.5573 356° North 223 257 5,900  Descending Aus ATC (RADAR)
06:35PM -28.5468 153.5697 13° North 212 244 6,000 -360 Climbing Aus ATC (RADAR)
06:36PM -28.5239 153.5790 20° North 211 243 5,500 -1,440 Descending Aus ATC (RADAR)
06:36PM -28.4898 153.5891 15° North 217 250 4,600 -720 Descending Aus ATC (RADAR)
06:38PM -28.4110 153.6082 12° North 197 227 4,100 -300 Descending Aus ATC (RADAR)
06:38PM -28.3992 153.6120 16° North 185 213 4,100 -1,320 Level Aus ATC (RADAR)
06:39PM -28.3701 153.6201 14° North 186 214 3,000 -780 Descending Aus ATC (RADAR)
06:39PM -28.3292 153.6190 359° North 160 184 3,000 -180 Level Aus ATC (RADAR)
06:40PM -28.3097 153.6105 339° North 152 175 2,800 -480 Descending Aus ATC (RADAR)
06:41PM -28.2814 153.5939 333° Northwest 149 171 2,400 -360 Descending Aus ATC (RADAR)
06:41PM -28.2662 153.5810 323° Northwest 138 159 2,400 -540 Level Aus ATC (RADAR)
06:42PM -28.2405 153.5595 324° Northwest 141 162 1,700 -780 Descending Aus ATC (RADAR)
06:43PM -28.2236 153.5427 319° Northwest 136 157 1,300 -780 Descending Aus ATC (RADAR)
06:43PM -28.2059 153.5318 332° Northwest 125 144 800 -720 Descending Aus ATC (RADAR)
06:44PM -28.1832 153.5175 331° Northwest 110 127 300 -600 Descending Aus ATC (RADAR)
06:44PM -28.1726 153.5106 330° Northwest 105 121 100 -240 Descending Aus ATC (RADAR)
06:45PM -28.1622 153.5039 331° Northwest 57 66 100  Level Aus ATC (RADAR)
06:46PM -28.1643 153.5063 135° Southeast 14 16 100  Level Aus ATC (RADAR)
06:46PM -28.1646 153.5069 116° Southeast 14 16 100  Level Aus ATC (RADAR)